Time;durP1;ratioP1;P1;durP2;ratioP2;P2;SDS_P1;SDS_P2;PMS_P1;PMS_P2;Temp;Humidity;BMP_temperature;BMP_pressure;BME280_temperature;BME280_humidity;BME280_pressure;Samples;Min_cycle;Max_cycle;Signal;HPM_P1;HPM_P2
2022/04/18 00:00:37;;;;;;;3.53;0.80;;;;;;;;;;4915841;29;20028;-68
2022/04/18 00:03:04;;;;;;;2.80;0.73;;;;;;;;;;4915426;29;20051;-69
2022/04/18 00:05:33;;;;;;;6.03;1.15;;;;;;;;;;4931790;29;20391;-69
2022/04/18 00:08:00;;;;;;;4.18;1.05;;;;;;;;;;4937564;29;20032;-67
2022/04/18 00:10:26;;;;;;;0.80;0.70;;;;;;;;;;4935323;29;20526;-64
2022/04/18 00:12:52;;;;;;;0.70;0.70;;;;;;;;;;4934634;29;20035;-66
2022/04/18 00:15:18;;;;;;;1.63;0.90;;;;;;;;;;4934903;29;20023;-65
2022/04/18 00:17:44;;;;;;;1.02;0.90;;;;;;;;;;4923699;29;20118;-64
2022/04/18 00:20:10;;;;;;;0.90;0.70;;;;;;;;;;4930198;29;20127;-65
2022/04/18 00:22:36;;;;;;;0.93;0.70;;;;;;;;;;4915727;29;20040;-65
2022/04/18 00:25:03;;;;;;;0.80;0.55;;;;;;;;;;4915245;29;20059;-64
2022/04/18 00:27:28;;;;;;;0.50;0.40;;;;;;;;;;4915303;29;20063;-65
2022/04/18 00:29:55;;;;;;;0.60;0.40;;;;;;;;;;4915177;29;20035;-65
2022/04/18 00:32:21;;;;;;;0.32;0.30;;;;;;;;;;4915156;29;20044;-64
2022/04/18 00:34:47;;;;;;;1.75;0.30;;;;;;;;;;4915227;29;20032;-63
2022/04/18 00:37:13;;;;;;;0.65;0.30;;;;;;;;;;4915275;29;20511;-69
2022/04/18 00:39:39;;;;;;;0.17;0.17;;;;;;;;;;4914915;29;20069;-65
2022/04/18 00:42:05;;;;;;;0.30;0.30;;;;;;;;;;4915459;29;20088;-66
2022/04/18 00:44:30;;;;;;;0.47;0.40;;;;;;;;;;4915451;29;20028;-70
2022/04/18 00:46:56;;;;;;;0.75;0.52;;;;;;;;;;4915562;29;20032;-72
2022/04/18 00:49:22;;;;;;;0.57;0.40;;;;;;;;;;4915950;29;20032;-65
2022/04/18 00:51:48;;;;;;;0.60;0.50;;;;;;;;;;4913950;29;20052;-67
2022/04/18 00:54:14;;;;;;;3.42;0.70;;;;;;;;;;4915220;29;20084;-65
2022/04/18 00:56:41;;;;;;;2.95;0.40;;;;;;;;;;4915391;29;20055;-64
2022/04/18 00:59:07;;;;;;;1.20;0.30;;;;;;;;;;4914740;29;20024;-64
2022/04/18 01:01:33;;;;;;;0.43;0.28;;;;;;;;;;4915396;29;20036;-67
2022/04/18 01:04:00;;;;;;;1.08;0.20;;;;;;;;;;4915299;29;20038;-64
2022/04/18 01:06:25;;;;;;;0.52;0.32;;;;;;;;;;4917391;29;20141;-62
2022/04/18 01:08:52;;;;;;;0.50;0.28;;;;;;;;;;4933199;29;20064;-64
2022/04/18 01:11:18;;;;;;;0.22;0.20;;;;;;;;;;4933293;29;20040;-69
2022/04/18 01:14:08;;;;;;;0.30;0.30;;;;;;;;;;4918279;29;20140;-64
2022/04/18 01:16:49;;;;;;;0.28;0.28;;;;;;;;;;4918963;29;20044;-68
2022/04/18 01:19:24;;;;;;;0.73;0.40;;;;;;;;;;4917659;29;20119;-70
2022/04/18 01:21:59;;;;;;;0.45;0.45;;;;;;;;;;4918383;29;20032;-66
2022/04/18 01:30:30;;;;;;;1.67;0.50;;;;;;;;;;4917476;29;20069;-65
2022/04/18 01:32:56;;;;;;;0.63;0.40;;;;;;;;;;4918281;29;20504;-66
2022/04/18 01:35:22;;;;;;;1.45;0.38;;;;;;;;;;4918202;29;20036;-67
2022/04/18 01:37:49;;;;;;;0.32;0.32;;;;;;;;;;4933062;29;20519;-64
2022/04/18 01:40:16;;;;;;;1.40;0.52;;;;;;;;;;4918801;29;20036;-65
2022/04/18 01:42:42;;;;;;;1.85;0.60;;;;;;;;;;4918846;29;20035;-65
2022/04/18 01:45:10;;;;;;;5.28;1.77;;;;;;;;;;4917636;29;20035;-63
2022/04/18 01:47:36;;;;;;;3.05;0.80;;;;;;;;;;4917086;29;20422;-64
2022/04/18 01:50:03;;;;;;;0.57;0.50;;;;;;;;;;4932877;29;20044;-66
2022/04/18 01:52:30;;;;;;;0.68;0.50;;;;;;;;;;4932769;29;20036;-64
2022/04/18 01:54:56;;;;;;;0.93;0.70;;;;;;;;;;4932887;29;20040;-65
2022/04/18 01:57:22;;;;;;;0.70;0.50;;;;;;;;;;4932261;29;20488;-65
2022/04/18 01:59:49;;;;;;;0.85;0.63;;;;;;;;;;4916689;29;20067;-66
2022/04/18 02:02:16;;;;;;;1.20;0.77;;;;;;;;;;4932952;29;20044;-67
2022/04/18 02:04:42;;;;;;;1.20;0.60;;;;;;;;;;4917300;29;20036;-70
2022/04/18 02:07:11;;;;;;;0.82;0.50;;;;;;;;;;4916686;29;20029;-64
2022/04/18 02:09:39;;;;;;;0.50;0.50;;;;;;;;;;4932780;29;20047;-70
2022/04/18 02:12:08;;;;;;;0.40;0.40;;;;;;;;;;4916885;29;20036;-69
2022/04/18 02:14:47;;;;;;;0.50;0.50;;;;;;;;;;4918519;29;20044;-68
2022/04/18 02:17:13;;;;;;;1.05;0.70;;;;;;;;;;4916460;29;20036;-66
2022/04/18 02:19:39;;;;;;;1.02;0.70;;;;;;;;;;4932351;29;20032;-65
2022/04/18 02:22:05;;;;;;;0.50;0.50;;;;;;;;;;4916024;29;20036;-66
2022/04/18 02:24:31;;;;;;;0.80;0.60;;;;;;;;;;4917189;29;20076;-69
2022/04/18 02:26:58;;;;;;;0.65;0.50;;;;;;;;;;4916328;29;20033;-67
2022/04/18 02:29:24;;;;;;;1.50;0.60;;;;;;;;;;4932272;29;20404;-63
2022/04/18 02:34:35;;;;;;;0.50;0.50;;;;;;;;;;4916458;29;20040;-65
2022/04/18 02:37:01;;;;;;;0.40;0.40;;;;;;;;;;4917310;29;20075;-66
2022/04/18 02:39:31;;;;;;;0.75;0.32;;;;;;;;;;4932321;29;20032;-68
2022/04/18 02:41:57;;;;;;;0.50;0.50;;;;;;;;;;4917308;29;20459;-65
2022/04/18 02:44:27;;;;;;;1.00;0.60;;;;;;;;;;4931574;29;20028;-67
2022/04/18 02:46:53;;;;;;;1.10;0.60;;;;;;;;;;4915901;29;20059;-65
2022/04/18 02:49:19;;;;;;;0.47;0.47;;;;;;;;;;4916137;29;20391;-70
2022/04/18 02:51:45;;;;;;;1.30;0.80;;;;;;;;;;4930392;29;20052;-64
2022/04/18 02:54:15;;;;;;;0.50;0.50;;;;;;;;;;4924978;29;20040;-67
2022/04/18 02:56:41;;;;;;;0.88;0.70;;;;;;;;;;4917115;29;20036;-70
2022/04/18 02:59:07;;;;;;;1.33;0.70;;;;;;;;;;4930916;29;20395;-67
2022/04/18 03:01:33;;;;;;;0.85;0.80;;;;;;;;;;4916846;29;20047;-64
2022/04/18 03:03:59;;;;;;;4.60;1.20;;;;;;;;;;4931213;29;20032;-71
2022/04/18 03:06:25;;;;;;;3.28;1.15;;;;;;;;;;4931527;29;20395;-65
2022/04/18 03:08:51;;;;;;;2.58;0.90;;;;;;;;;;4931854;29;20024;-64
2022/04/18 03:11:17;;;;;;;1.30;0.80;;;;;;;;;;4931459;29;20391;-66
2022/04/18 03:13:46;;;;;;;0.70;0.57;;;;;;;;;;4931086;29;20513;-70
2022/04/18 03:16:38;;;;;;;0.80;0.60;;;;;;;;;;4917105;29;20032;-66
2022/04/18 03:19:04;;;;;;;0.98;0.70;;;;;;;;;;4915675;29;20044;-65
2022/04/18 03:21:34;;;;;;;4.22;0.93;;;;;;;;;;4919867;29;20049;-65
2022/04/18 03:24:04;;;;;;;1.10;0.80;;;;;;;;;;4919413;29;20481;-66
2022/04/18 03:26:39;;;;;;;0.80;0.80;;;;;;;;;;4915359;29;20119;-64
2022/04/18 03:29:13;;;;;;;1.42;0.90;;;;;;;;;;4914906;29;20059;-66
2022/04/18 03:31:39;;;;;;;2.53;0.88;;;;;;;;;;4915332;29;20039;-66
2022/04/18 03:34:07;;;;;;;2.47;1.20;;;;;;;;;;4915179;29;20095;-66
2022/04/18 03:42:03;;;;;;;5.50;1.20;;;;;;;;;;4914589;29;20040;-63
2022/04/18 03:44:29;;;;;;;2.88;1.48;;;;;;;;;;4945597;29;20063;-65
2022/04/18 03:46:55;;;;;;;4.38;1.35;;;;;;;;;;4933406;29;20075;-64
2022/04/18 03:49:21;;;;;;;3.63;1.30;;;;;;;;;;4949709;28;20034;-63
2022/04/18 03:51:49;;;;;;;2.95;1.00;;;;;;;;;;4949939;28;20058;-66
2022/04/18 03:54:14;;;;;;;4.45;1.50;;;;;;;;;;4935267;29;20040;-67
2022/04/18 03:56:41;;;;;;;2.88;1.25;;;;;;;;;;4950296;28;20352;-66
2022/04/18 03:59:07;;;;;;;3.97;1.75;;;;;;;;;;4934762;29;20039;-64
2022/04/18 04:01:43;;;;;;;4.55;1.70;;;;;;;;;;4920117;29;20039;-66
2022/04/18 04:04:10;;;;;;;3.00;1.60;;;;;;;;;;4915044;29;20098;-64
2022/04/18 04:06:36;;;;;;;5.03;2.28;;;;;;;;;;4915368;29;20432;-65
2022/04/18 04:09:02;;;;;;;3.40;1.50;;;;;;;;;;4915121;29;20036;-67
2022/04/18 04:11:33;;;;;;;1.85;1.20;;;;;;;;;;4931087;29;20165;-65
2022/04/18 04:14:00;;;;;;;1.20;0.93;;;;;;;;;;4914731;29;20496;-68
2022/04/18 04:16:27;;;;;;;3.30;0.93;;;;;;;;;;4914439;29;20056;-66
2022/04/18 04:18:56;;;;;;;6.55;0.90;;;;;;;;;;4930491;29;20127;-70
2022/04/18 04:21:21;;;;;;;1.95;1.20;;;;;;;;;;4930689;29;20208;-66
2022/04/18 04:23:48;;;;;;;1.15;0.88;;;;;;;;;;4915694;29;20092;-67
2022/04/18 04:26:32;;;;;;;;;;;;;;;;;;4916819;29;20047;-64
2022/04/18 04:28:59;;;;;;;4.82;1.90;;;;;;;;;;4916287;29;20017;-64
2022/04/18 04:31:44;;;;;;;3.75;1.50;;;;;;;;;;4916512;29;20047;-65
2022/04/18 04:34:11;;;;;;;3.22;1.48;;;;;;;;;;4914671;29;20334;-66
2022/04/18 04:36:42;;;;;;;1.30;1.00;;;;;;;;;;4914777;29;20118;-66
2022/04/18 04:39:09;;;;;;;1.30;1.00;;;;;;;;;;4914616;29;20036;-66
2022/04/18 04:41:40;;;;;;;2.47;1.00;;;;;;;;;;4905319;29;20040;-68
2022/04/18 04:44:07;;;;;;;1.00;0.80;;;;;;;;;;4906424;29;20048;-69
2022/04/18 04:46:59;;;;;;;2.28;1.13;;;;;;;;;;4897329;29;20407;-64
2022/04/18 04:49:28;;;;;;;2.67;1.08;;;;;;;;;;4927776;29;20122;-65
2022/04/18 04:52:14;;;;;;;2.35;0.90;;;;;;;;;;4914980;29;20101;-66
2022/04/18 04:54:41;;;;;;;2.55;1.20;;;;;;;;;;4913762;29;20041;-65
2022/04/18 04:57:10;;;;;;;1.08;0.80;;;;;;;;;;4914184;29;20462;-66
2022/04/18 04:59:59;;;;;;;1.65;0.85;;;;;;;;;;4914570;29;20361;-64
2022/04/18 05:02:25;;;;;;;2.17;0.80;;;;;;;;;;4929290;29;20032;-69
2022/04/18 05:04:52;;;;;;;3.63;1.42;;;;;;;;;;4913582;29;20466;-66
2022/04/18 05:07:18;;;;;;;4.38;2.20;;;;;;;;;;4928686;29;20443;-64
2022/04/18 05:10:04;;;;;;;0.68;0.55;;;;;;;;;;4913828;29;20040;-65
2022/04/18 05:12:33;;;;;;;2.60;1.10;;;;;;;;;;4913656;29;20055;-65
2022/04/18 05:15:06;;;;;;;2.30;0.80;;;;;;;;;;4913471;29;20452;-65
2022/04/18 05:17:52;;;;;;;0.70;0.60;;;;;;;;;;4913370;29;20055;-64
2022/04/18 05:20:18;;;;;;;0.73;0.63;;;;;;;;;;4927895;29;20040;-64
2022/04/18 05:22:44;;;;;;;1.80;0.90;;;;;;;;;;4912927;29;20037;-66
2022/04/18 05:25:14;;;;;;;2.55;1.15;;;;;;;;;;4913524;29;20123;-65
2022/04/18 05:27:44;;;;;;;0.50;0.50;;;;;;;;;;4913505;29;20096;-71
2022/04/18 05:30:27;;;;;;;1.05;0.80;;;;;;;;;;4916625;29;20034;-70
2022/04/18 05:32:54;;;;;;;0.60;0.60;;;;;;;;;;4913724;29;20083;-68
2022/04/18 05:35:21;;;;;;;1.27;1.00;;;;;;;;;;4913551;29;20472;-69
2022/04/18 05:37:48;;;;;;;1.88;1.02;;;;;;;;;;4929048;29;20036;-68
2022/04/18 05:40:29;;;;;;;3.83;1.17;;;;;;;;;;4915487;29;20059;-71
2022/04/18 05:42:56;;;;;;;1.40;0.90;;;;;;;;;;4912823;29;20040;-69
2022/04/18 05:45:23;;;;;;;3.67;1.33;;;;;;;;;;4928191;29;20104;-68
2022/04/18 05:48:00;;;;;;;2.15;0.85;;;;;;;;;;4911667;29;20506;-69
2022/04/18 05:50:30;;;;;;;4.22;1.90;;;;;;;;;;4913202;29;20503;-69
2022/04/18 05:53:16;;;;;;;1.10;0.80;;;;;;;;;;4917540;29;20111;-72
2022/04/18 05:56:17;;;;;;;1.23;0.70;;;;;;;;;;4912136;29;20505;-69
2022/04/18 05:58:52;;;;;;;2.72;0.93;;;;;;;;;;4915976;29;20484;-72
2022/04/18 06:01:36;;;;;;;1.83;1.23;;;;;;;;;;4918066;29;20074;-71
2022/04/18 06:04:09;;;;;;;1.10;0.80;;;;;;;;;;4917030;29;20079;-71
2022/04/18 06:06:35;;;;;;;0.68;0.50;;;;;;;;;;4916751;29;20447;-72
2022/04/18 06:09:02;;;;;;;1.08;0.80;;;;;;;;;;4931965;29;20067;-72
2022/04/18 06:11:28;;;;;;;0.70;0.68;;;;;;;;;;4932320;29;20484;-72
2022/04/18 06:14:09;;;;;;;0.50;0.50;;;;;;;;;;4917487;29;20044;-67
2022/04/18 06:16:41;;;;;;;1.73;0.85;;;;;;;;;;4916176;29;20028;-69
2022/04/18 06:19:08;;;;;;;0.75;0.73;;;;;;;;;;4931878;29;20106;-75
2022/04/18 06:21:33;;;;;;;2.90;0.82;;;;;;;;;;4934366;29;20027;-71
2022/04/18 06:24:00;;;;;;;2.78;1.00;;;;;;;;;;4934551;29;20066;-71
2022/04/18 06:26:29;;;;;;;0.93;0.70;;;;;;;;;;4936338;29;20024;-70
2022/04/18 06:28:59;;;;;;;3.35;1.55;;;;;;;;;;4951250;28;20483;-70
2022/04/18 06:31:26;;;;;;;3.10;1.17;;;;;;;;;;4936495;29;20055;-71
2022/04/18 06:33:58;;;;;;;1.45;0.75;;;;;;;;;;4935071;29;20118;-73
2022/04/18 06:36:25;;;;;;;2.03;0.75;;;;;;;;;;4931036;29;20184;-69
2022/04/18 06:39:05;;;;;;;1.40;0.88;;;;;;;;;;4915756;29;20059;-73
2022/04/18 06:41:31;;;;;;;1.70;1.20;;;;;;;;;;4929510;29;20122;-72
2022/04/18 06:43:59;;;;;;;0.80;0.60;;;;;;;;;;4934158;29;20027;-71
2022/04/18 06:46:28;;;;;;;1.83;0.80;;;;;;;;;;4947841;28;20395;-73
2022/04/18 06:49:01;;;;;;;3.90;1.03;;;;;;;;;;4930815;29;20047;-70
2022/04/18 06:51:46;;;;;;;0.60;0.52;;;;;;;;;;4917763;29;20763;-71
2022/04/18 06:54:32;;;;;;;1.17;0.75;;;;;;;;;;4916766;29;20131;-69
2022/04/18 06:57:07;;;;;;;3.78;1.00;;;;;;;;;;4931051;29;20045;-71
2022/04/18 06:59:54;;;;;;;5.05;1.55;;;;;;;;;;4916073;29;20083;-70
2022/04/18 07:02:23;;;;;;;2.90;1.00;;;;;;;;;;4930198;29;20036;-69
2022/04/18 07:04:50;;;;;;;7.28;1.20;;;;;;;;;;4932320;29;20075;-69
2022/04/18 07:07:16;;;;;;;6.43;1.25;;;;;;;;;;4931152;29;20042;-70
2022/04/18 07:09:42;;;;;;;13.50;2.08;;;;;;;;;;4931349;29;20127;-68
2022/04/18 07:12:23;;;;;;;78.45;7.22;;;;;;;;;;4924924;29;20040;-69
2022/04/18 07:14:51;;;;;;;5.05;1.52;;;;;;;;;;4933626;29;20040;-67
2022/04/18 07:17:17;;;;;;;3.40;1.40;;;;;;;;;;4936132;28;20390;-69
2022/04/18 07:19:42;;;;;;;4.97;1.05;;;;;;;;;;4909385;29;20041;-69
2022/04/18 07:22:19;;;;;;;5.20;1.38;;;;;;;;;;4942110;29;20063;-68
2022/04/18 07:24:45;;;;;;;4.47;1.10;;;;;;;;;;4949017;29;20498;-68
2022/04/18 07:27:12;;;;;;;2.38;1.40;;;;;;;;;;4933797;29;20482;-68
2022/04/18 07:29:45;;;;;;;3.08;1.00;;;;;;;;;;4933329;29;20054;-69
2022/04/18 07:32:11;;;;;;;4.82;1.25;;;;;;;;;;4949234;29;20493;-71
2022/04/18 07:34:37;;;;;;;1.95;0.88;;;;;;;;;;4933799;29;20032;-68
2022/04/18 07:37:07;;;;;;;16.65;1.60;;;;;;;;;;4933337;29;20082;-70
2022/04/18 07:39:33;;;;;;;19.20;2.65;;;;;;;;;;4933305;29;20067;-68
2022/04/18 07:41:59;;;;;;;0.85;0.68;;;;;;;;;;4933564;29;20438;-69
2022/04/18 07:44:28;;;;;;;10.57;1.58;;;;;;;;;;4933568;29;20035;-69
2022/04/18 07:46:55;;;;;;;7.25;1.20;;;;;;;;;;4948945;28;20037;-71
2022/04/18 07:49:30;;;;;;;9.18;1.35;;;;;;;;;;4949446;28;20032;-69
2022/04/18 07:51:58;;;;;;;1.90;0.70;;;;;;;;;;4949192;28;20048;-68
2022/04/18 07:54:33;;;;;;;0.88;0.60;;;;;;;;;;4933486;29;20039;-69
2022/04/18 07:56:59;;;;;;;1.52;0.93;;;;;;;;;;4934234;29;20083;-69
2022/04/18 07:59:35;;;;;;;16.65;2.03;;;;;;;;;;4933330;29;20035;-70
2022/04/18 08:02:02;;;;;;;5.63;1.20;;;;;;;;;;4933306;29;20040;-69
2022/04/18 08:04:51;;;;;;;6.43;1.50;;;;;;;;;;4942903;29;20052;-68
2022/04/18 08:07:24;;;;;;;2.92;0.60;;;;;;;;;;4923133;29;20063;-70
2022/04/18 08:09:50;;;;;;;4.72;1.20;;;;;;;;;;4914018;29;20503;-71
2022/04/18 08:12:16;;;;;;;2.47;1.10;;;;;;;;;;4915575;29;20031;-72
2022/04/18 08:15:08;;;;;;;2.33;1.80;;;;;;;;;;4922877;29;20079;-71
2022/04/18 08:17:35;;;;;;;1.65;0.60;;;;;;;;;;4913905;29;20036;-70
2022/04/18 08:20:03;;;;;;;0.80;0.50;;;;;;;;;;4913180;29;20080;-69
2022/04/18 08:22:29;;;;;;;3.55;1.10;;;;;;;;;;4929904;29;20052;-74
2022/04/18 08:25:21;;;;;;;2.88;1.17;;;;;;;;;;4922060;29;20091;-74
2022/04/18 08:28:22;;;;;;;1.27;1.00;;;;;;;;;;4927290;29;20138;-77
2022/04/18 08:30:48;;;;;;;4.35;1.80;;;;;;;;;;4932721;29;20036;-75
2022/04/18 08:33:34;;;;;;;4.63;1.20;;;;;;;;;;4920910;29;20086;-69
2022/04/18 08:36:00;;;;;;;1.33;0.80;;;;;;;;;;4913231;29;20349;-74
2022/04/18 08:38:27;;;;;;;5.15;2.63;;;;;;;;;;4911909;29;20031;-70
2022/04/18 08:41:20;;;;;;;2.28;1.02;;;;;;;;;;4915717;29;20051;-69
2022/04/18 08:43:46;;;;;;;2.30;1.42;;;;;;;;;;4914900;29;20040;-69
2022/04/18 08:46:12;;;;;;;2.03;1.00;;;;;;;;;;4929666;29;20046;-69
2022/04/18 08:54:13;;;;;;;0.65;0.50;;;;;;;;;;4913587;29;20048;-67
2022/04/18 08:56:39;;;;;;;1.20;0.90;;;;;;;;;;4913555;29;20115;-68
2022/04/18 08:59:06;;;;;;;0.57;0.57;;;;;;;;;;4915816;29;20033;-67
2022/04/18 09:01:33;;;;;;;2.75;0.68;;;;;;;;;;4930199;29;20510;-68
2022/04/18 09:04:25;;;;;;;2.28;0.80;;;;;;;;;;4914547;29;20107;-69
2022/04/18 09:06:54;;;;;;;1.63;0.80;;;;;;;;;;4915388;29;20471;-69
2022/04/18 09:09:28;;;;;;;1.27;0.70;;;;;;;;;;4929892;29;20051;-68
2022/04/18 09:12:01;;;;;;;0.60;0.60;;;;;;;;;;4913480;29;20503;-68
2022/04/18 09:14:34;;;;;;;0.90;0.70;;;;;;;;;;4914025;29;20135;-67
2022/04/18 09:17:00;;;;;;;1.67;0.50;;;;;;;;;;4926810;29;20059;-68
2022/04/18 09:19:46;;;;;;;4.00;0.90;;;;;;;;;;4934207;29;20127;-68
2022/04/18 09:22:18;;;;;;;2.10;0.90;;;;;;;;;;4933385;29;20126;-69
2022/04/18 09:24:54;;;;;;;4.07;1.98;;;;;;;;;;4932621;29;20051;-68
2022/04/18 09:27:24;;;;;;;2.55;0.70;;;;;;;;;;4951217;28;20040;-69
2022/04/18 09:30:06;;;;;;;0.98;0.75;;;;;;;;;;4936058;29;20032;-68
2022/04/18 09:32:34;;;;;;;2.28;0.90;;;;;;;;;;4952185;28;20027;-71
2022/04/18 09:35:27;;;;;;;1.02;0.80;;;;;;;;;;4928030;28;20098;-68
2022/04/18 09:38:02;;;;;;;1.27;0.90;;;;;;;;;;4932340;29;20036;-69
2022/04/18 09:40:50;;;;;;;0.93;0.80;;;;;;;;;;4918080;29;20032;-69
2022/04/18 09:43:21;;;;;;;3.17;1.23;;;;;;;;;;4932704;29;20064;-68
2022/04/18 09:45:49;;;;;;;1.30;0.88;;;;;;;;;;4932413;29;20047;-68
2022/04/18 09:48:16;;;;;;;1.73;1.08;;;;;;;;;;4916549;29;20503;-69
2022/04/18 09:51:01;;;;;;;1.77;1.00;;;;;;;;;;4916923;29;20517;-69
2022/04/18 09:53:45;;;;;;;1.27;1.00;;;;;;;;;;4932612;29;20233;-68
2022/04/18 09:56:21;;;;;;;1.85;1.20;;;;;;;;;;4917998;29;20091;-69
2022/04/18 09:58:47;;;;;;;3.80;1.60;;;;;;;;;;4927091;29;20032;-69
2022/04/18 10:01:14;;;;;;;3.25;1.40;;;;;;;;;;4936712;29;20072;-70
2022/04/18 10:03:41;;;;;;;2.83;1.30;;;;;;;;;;4936328;29;20485;-69
2022/04/18 10:06:07;;;;;;;1.65;1.25;;;;;;;;;;4936423;29;20086;-69
2022/04/18 10:08:35;;;;;;;1.33;1.05;;;;;;;;;;4935274;29;20059;-72
2022/04/18 10:11:03;;;;;;;1.48;1.20;;;;;;;;;;4935619;29;20502;-72
2022/04/18 10:13:30;;;;;;;3.25;1.90;;;;;;;;;;4916975;29;20051;-70
2022/04/18 10:15:58;;;;;;;2.88;1.58;;;;;;;;;;4917102;29;20048;-70
2022/04/18 10:18:24;;;;;;;1.40;1.10;;;;;;;;;;4917301;29;20464;-74
2022/04/18 10:21:08;;;;;;;1.50;1.10;;;;;;;;;;4917144;29;20024;-70
2022/04/18 10:24:12;;;;;;;2.28;1.30;;;;;;;;;;4917106;29;20056;-69
2022/04/18 10:26:52;;;;;;;1.45;1.20;;;;;;;;;;4917602;29;20123;-74
2022/04/18 10:29:29;;;;;;;1.45;1.10;;;;;;;;;;4917117;29;20032;-69
2022/04/18 10:31:57;;;;;;;1.10;0.95;;;;;;;;;;4917246;29;20036;-72
2022/04/18 10:34:24;;;;;;;2.05;1.25;;;;;;;;;;4916355;29;20451;-72
2022/04/18 10:36:54;;;;;;;1.67;1.30;;;;;;;;;;4917407;29;20064;-73
2022/04/18 10:39:21;;;;;;;2.45;1.65;;;;;;;;;;4917058;29;20032;-71
2022/04/18 10:41:49;;;;;;;2.78;1.67;;;;;;;;;;4916923;29;20070;-67
2022/04/18 10:44:16;;;;;;;3.38;1.40;;;;;;;;;;4916982;29;20396;-69
2022/04/18 10:47:00;;;;;;;4.50;1.58;;;;;;;;;;4916900;29;20486;-69
2022/04/18 10:49:31;;;;;;;2.20;1.50;;;;;;;;;;4916936;29;20043;-70
2022/04/18 10:52:05;;;;;;;2.80;1.25;;;;;;;;;;4916572;29;20095;-69
2022/04/18 10:54:30;;;;;;;;;;;;;;;;;;4932006;29;20047;-70
2022/04/18 10:57:12;;;;;;;1.58;1.20;;;;;;;;;;4917094;29;19915;-70
2022/04/18 10:59:42;;;;;;;2.20;1.70;;;;;;;;;;4916956;29;20091;-71
2022/04/18 11:02:29;;;;;;;3.97;1.60;;;;;;;;;;4916781;29;20064;-71
2022/04/18 11:04:55;;;;;;;4.70;1.70;;;;;;;;;;4916839;29;20040;-73
2022/04/18 11:07:37;;;;;;;3.65;1.27;;;;;;;;;;4916680;29;20031;-70
2022/04/18 11:10:21;;;;;;;1.70;1.05;;;;;;;;;;4916571;29;20036;-73
2022/04/18 11:12:47;;;;;;;2.38;1.20;;;;;;;;;;4916344;29;20036;-71
2022/04/18 11:15:13;;;;;;;4.70;1.23;;;;;;;;;;4916344;29;20455;-71
2022/04/18 11:17:40;;;;;;;2.15;1.48;;;;;;;;;;4916131;29;20050;-71
2022/04/18 11:20:25;;;;;;;1.98;1.25;;;;;;;;;;4916186;29;20021;-71
2022/04/18 11:23:30;;;;;;;3.05;1.70;;;;;;;;;;4916274;29;20032;-69
2022/04/18 11:25:58;;;;;;;0.93;0.80;;;;;;;;;;4897635;29;20535;-71
2022/04/18 11:28:33;;;;;;;1.65;0.75;;;;;;;;;;4897430;29;20029;-71
2022/04/18 11:30:59;;;;;;;1.00;0.80;;;;;;;;;;4897362;29;20059;-68
2022/04/18 11:33:25;;;;;;;1.13;0.80;;;;;;;;;;4906586;29;20052;-71
2022/04/18 11:35:59;;;;;;;0.60;0.60;;;;;;;;;;4916073;29;20033;-69
2022/04/18 11:38:25;;;;;;;0.70;0.70;;;;;;;;;;4930767;29;20044;-69
2022/04/18 11:40:53;;;;;;;2.17;0.70;;;;;;;;;;4915614;29;20048;-70
2022/04/18 11:43:19;;;;;;;1.88;0.80;;;;;;;;;;4915631;29;20063;-72
2022/04/18 11:45:45;;;;;;;0.80;0.73;;;;;;;;;;4914603;29;20024;-73
2022/04/18 11:48:12;;;;;;;1.17;0.68;;;;;;;;;;4915249;29;20419;-71
2022/04/18 11:50:42;;;;;;;1.60;1.02;;;;;;;;;;4915564;29;20488;-69
2022/04/18 11:53:09;;;;;;;1.15;0.90;;;;;;;;;;4915831;29;20036;-72
2022/04/18 11:55:46;;;;;;;0.60;0.60;;;;;;;;;;4915941;29;20044;-71
2022/04/18 11:58:19;;;;;;;1.15;0.60;;;;;;;;;;4915711;29;20040;-74
2022/04/18 12:09:13;;;;;;;1.40;0.90;;;;;;;;;;4916219;29;20119;-69
2022/04/18 12:11:40;;;;;;;1.88;0.98;;;;;;;;;;4935565;29;20111;-70
2022/04/18 12:14:06;;;;;;;2.50;0.80;;;;;;;;;;4917966;29;20181;-70
2022/04/18 12:16:33;;;;;;;1.65;0.88;;;;;;;;;;4916518;29;20048;-67
2022/04/18 12:18:59;;;;;;;1.02;0.70;;;;;;;;;;4915312;29;20047;-75
2022/04/18 12:21:25;;;;;;;2.80;1.27;;;;;;;;;;4915406;29;20036;-70
2022/04/18 12:23:55;;;;;;;0.75;0.55;;;;;;;;;;4930659;29;20505;-71
2022/04/18 12:26:26;;;;;;;1.02;0.85;;;;;;;;;;4916104;29;20076;-70
2022/04/18 12:29:08;;;;;;;6.10;1.33;;;;;;;;;;4913143;29;20051;-73
2022/04/18 12:31:40;;;;;;;2.08;0.70;;;;;;;;;;4915387;29;20055;-75
2022/04/18 12:34:06;;;;;;;1.15;0.70;;;;;;;;;;4915174;29;20055;-72
2022/04/18 12:36:36;;;;;;;0.68;0.60;;;;;;;;;;4915220;29;20055;-68
2022/04/18 12:39:03;;;;;;;4.00;1.05;;;;;;;;;;4914521;29;20329;-67
2022/04/18 12:41:32;;;;;;;1.42;0.85;;;;;;;;;;4915033;29;20032;-70
2022/04/18 12:43:59;;;;;;;1.38;0.90;;;;;;;;;;4914570;29;20080;-68
2022/04/18 12:46:30;;;;;;;2.15;0.70;;;;;;;;;;4914826;29;20024;-70
2022/04/18 12:48:56;;;;;;;1.20;0.80;;;;;;;;;;4914729;29;20094;-71
2022/04/18 12:51:51;;;;;;;1.45;0.75;;;;;;;;;;4914952;29;20092;-70
2022/04/18 12:54:23;;;;;;;2.63;1.20;;;;;;;;;;4914295;29;20468;-69
2022/04/18 12:56:50;;;;;;;3.47;1.00;;;;;;;;;;4915240;29;20036;-67
2022/04/18 12:59:26;;;;;;;3.67;1.00;;;;;;;;;;4915075;29;20048;-68
2022/04/18 13:02:04;;;;;;;1.00;0.60;;;;;;;;;;4918060;29;20032;-68
2022/04/18 13:04:30;;;;;;;2.10;0.90;;;;;;;;;;4919107;29;20139;-71
2022/04/18 13:06:56;;;;;;;0.60;0.60;;;;;;;;;;4918993;29;20108;-68
2022/04/18 13:09:23;;;;;;;2.88;1.30;;;;;;;;;;4919385;29;20044;-75
2022/04/18 13:11:49;;;;;;;3.50;1.65;;;;;;;;;;4918666;29;20020;-72
2022/04/18 13:14:15;;;;;;;2.50;0.60;;;;;;;;;;4918618;29;20083;-67
2022/04/18 13:16:43;;;;;;;2.00;1.17;;;;;;;;;;4919157;29;20111;-69
2022/04/18 13:19:14;;;;;;;3.15;1.35;;;;;;;;;;4918081;29;20119;-69
2022/04/18 13:21:41;;;;;;;2.78;0.90;;;;;;;;;;4918862;29;20048;-74
2022/04/18 13:24:08;;;;;;;2.20;0.90;;;;;;;;;;4918424;29;20392;-71
2022/04/18 13:26:36;;;;;;;0.73;0.65;;;;;;;;;;4918880;29;20036;-70
2022/04/18 13:29:03;;;;;;;1.05;0.70;;;;;;;;;;4918452;29;20054;-72
2022/04/18 13:31:29;;;;;;;1.33;0.75;;;;;;;;;;4918669;29;20436;-70
2022/04/18 13:33:55;;;;;;;1.27;0.75;;;;;;;;;;4918649;29;20079;-68
2022/04/18 13:36:33;;;;;;;2.92;1.13;;;;;;;;;;4918579;29;20036;-69
2022/04/18 13:39:04;;;;;;;0.93;0.68;;;;;;;;;;4917801;29;20411;-69
2022/04/18 13:41:31;;;;;;;1.20;0.70;;;;;;;;;;4918033;29;20039;-70
2022/04/18 13:43:57;;;;;;;1.88;1.00;;;;;;;;;;4918009;29;20095;-71
2022/04/18 13:46:23;;;;;;;1.88;1.00;;;;;;;;;;4918118;29;20059;-72
2022/04/18 13:48:50;;;;;;;1.60;0.80;;;;;;;;;;4918134;29;20032;-72
2022/04/18 13:51:18;;;;;;;3.60;0.80;;;;;;;;;;4916210;29;20122;-70
2022/04/18 13:53:44;;;;;;;0.85;0.80;;;;;;;;;;4916693;29;20032;-68
2022/04/18 13:56:11;;;;;;;0.90;0.70;;;;;;;;;;4931217;29;20064;-68
2022/04/18 13:58:38;;;;;;;1.65;0.70;;;;;;;;;;4916987;29;20353;-75
2022/04/18 14:01:04;;;;;;;0.40;0.40;;;;;;;;;;4928623;29;20519;-73
2022/04/18 14:03:31;;;;;;;2.72;1.60;;;;;;;;;;4934489;29;20436;-70
2022/04/18 14:05:58;;;;;;;1.33;0.75;;;;;;;;;;4933846;29;20046;-77
2022/04/18 14:08:25;;;;;;;2.15;1.00;;;;;;;;;;4934973;29;20028;-73
2022/04/18 14:10:51;;;;;;;1.30;0.95;;;;;;;;;;4935742;29;20082;-71
2022/04/18 14:13:18;;;;;;;2.22;1.35;;;;;;;;;;4935275;29;20372;-69
2022/04/18 14:21:12;;;;;;;1.70;1.10;;;;;;;;;;4932667;29;20102;-70
2022/04/18 14:23:40;;;;;;;1.83;1.00;;;;;;;;;;4923447;29;20024;-66
2022/04/18 14:26:06;;;;;;;1.45;0.95;;;;;;;;;;4915953;29;20051;-67
2022/04/18 14:28:32;;;;;;;1.48;0.80;;;;;;;;;;4916126;29;20096;-67
2022/04/18 14:30:58;;;;;;;2.45;0.98;;;;;;;;;;4913483;29;20036;-67
2022/04/18 14:33:23;;;;;;;1.70;1.10;;;;;;;;;;4934193;29;20016;-67
2022/04/18 14:35:49;;;;;;;1.55;0.88;;;;;;;;;;4934842;29;20411;-68
2022/04/18 14:38:15;;;;;;;1.58;1.00;;;;;;;;;;4934865;29;20054;-67
2022/04/18 14:40:43;;;;;;;7.13;1.30;;;;;;;;;;4934905;29;20106;-70
2022/04/18 14:43:14;;;;;;;1.73;1.23;;;;;;;;;;4934729;29;20031;-69
2022/04/18 14:45:41;;;;;;;3.90;1.25;;;;;;;;;;4934956;29;20048;-68
2022/04/18 14:48:06;;;;;;;8.18;1.60;;;;;;;;;;4934360;29;20019;-66
2022/04/18 14:50:33;;;;;;;5.80;1.65;;;;;;;;;;4915698;29;605470;-68
2022/04/18 14:52:59;;;;;;;8.77;2.38;;;;;;;;;;4946608;29;20040;-68
2022/04/18 14:55:25;;;;;;;2.47;1.02;;;;;;;;;;4935698;29;20032;-69
2022/04/18 14:57:51;;;;;;;1.58;1.05;;;;;;;;;;4935278;29;20034;-67
2022/04/18 15:00:17;;;;;;;3.22;1.10;;;;;;;;;;4935352;29;20106;-72
2022/04/18 15:02:44;;;;;;;4.15;1.70;;;;;;;;;;4935780;29;20035;-69
2022/04/18 15:05:10;;;;;;;2.58;1.55;;;;;;;;;;4933876;29;20043;-71
2022/04/18 15:07:36;;;;;;;4.45;1.58;;;;;;;;;;4934956;29;20541;-69
2022/04/18 15:10:03;;;;;;;2.90;1.50;;;;;;;;;;4916566;29;20448;-67
2022/04/18 15:12:29;;;;;;;2.55;1.42;;;;;;;;;;4916410;29;20024;-68
2022/04/18 15:14:55;;;;;;;4.07;1.70;;;;;;;;;;4916034;29;20036;-68
2022/04/18 15:17:21;;;;;;;1.42;1.08;;;;;;;;;;4916218;29;20337;-71
2022/04/18 15:19:48;;;;;;;5.22;0.93;;;;;;;;;;4916349;29;20035;-70
2022/04/18 15:22:15;;;;;;;5.80;1.63;;;;;;;;;;4916590;29;20032;-69
2022/04/18 15:24:41;;;;;;;2.00;1.30;;;;;;;;;;4915953;29;20062;-69
2022/04/18 15:27:07;;;;;;;7.10;1.40;;;;;;;;;;4916252;29;20107;-72
2022/04/18 15:29:34;;;;;;;1.92;1.17;;;;;;;;;;4916022;29;20119;-69
2022/04/18 15:32:06;;;;;;;2.00;1.17;;;;;;;;;;4915829;29;20034;-69
2022/04/18 15:34:39;;;;;;;5.38;1.20;;;;;;;;;;4916042;29;20048;-70